sensor_id;sensor_type;location;lat;lon;timestamp;P1;durP1;ratioP1;P2;durP2;ratioP2
10596;SDS011;5346;48.766;8.674;2023-02-15T00:02:32;2.27;;;1.83;;
10596;SDS011;5346;48.766;8.674;2023-02-15T00:04:59;2.83;;;1.90;;
10596;SDS011;5346;48.766;8.674;2023-02-15T00:07:33;2.30;;;2.00;;
10596;SDS011;5346;48.766;8.674;2023-02-15T00:10:00;2.17;;;1.97;;
10596;SDS011;5346;48.766;8.674;2023-02-15T00:12:34;2.13;;;1.60;;
10596;SDS011;5346;48.766;8.674;2023-02-15T00:15:08;2.93;;;1.80;;
10596;SDS011;5346;48.766;8.674;2023-02-15T00:17:35;2.63;;;2.00;;
10596;SDS011;5346;48.766;8.674;2023-02-15T00:20:09;3.10;;;1.70;;
10596;SDS011;5346;48.766;8.674;2023-02-15T00:22:43;2.90;;;1.83;;
10596;SDS011;5346;48.766;8.674;2023-02-15T00:25:20;2.90;;;2.20;;
10596;SDS011;5346;48.766;8.674;2023-02-15T00:27:54;3.07;;;2.17;;
10596;SDS011;5346;48.766;8.674;2023-02-15T00:30:28;3.90;;;2.43;;
10596;SDS011;5346;48.766;8.674;2023-02-15T00:32:56;3.37;;;2.30;;
10596;SDS011;5346;48.766;8.674;2023-02-15T00:35:30;6.50;;;1.77;;
10596;SDS011;5346;48.766;8.674;2023-02-15T00:37:57;2.53;;;2.20;;
10596;SDS011;5346;48.766;8.674;2023-02-15T00:40:31;4.37;;;2.33;;
10596;SDS011;5346;48.766;8.674;2023-02-15T00:42:58;3.50;;;2.27;;
10596;SDS011;5346;48.766;8.674;2023-02-15T00:45:33;2.50;;;1.90;;
10596;SDS011;5346;48.766;8.674;2023-02-15T00:48:07;3.60;;;2.10;;
10596;SDS011;5346;48.766;8.674;2023-02-15T00:50:41;1.33;;;1.23;;
10596;SDS011;5346;48.766;8.674;2023-02-15T00:53:18;1.77;;;1.50;;
10596;SDS011;5346;48.766;8.674;2023-02-15T00:55:47;1.90;;;1.60;;
10596;SDS011;5346;48.766;8.674;2023-02-15T00:58:21;4.23;;;1.67;;
10596;SDS011;5346;48.766;8.674;2023-02-15T01:00:49;2.20;;;1.63;;
10596;SDS011;5346;48.766;8.674;2023-02-15T01:03:23;2.40;;;1.63;;
10596;SDS011;5346;48.766;8.674;2023-02-15T01:05:57;2.00;;;1.40;;
10596;SDS011;5346;48.766;8.674;2023-02-15T01:08:31;3.23;;;1.40;;
10596;SDS011;5346;48.766;8.674;2023-02-15T01:11:06;1.73;;;1.20;;
10596;SDS011;5346;48.766;8.674;2023-02-15T01:13:42;1.33;;;1.17;;
10596;SDS011;5346;48.766;8.674;2023-02-15T01:16:10;2.37;;;1.57;;
10596;SDS011;5346;48.766;8.674;2023-02-15T01:18:44;1.67;;;1.10;;
10596;SDS011;5346;48.766;8.674;2023-02-15T01:21:24;1.77;;;1.30;;
10596;SDS011;5346;48.766;8.674;2023-02-15T01:24:01;3.50;;;1.30;;
10596;SDS011;5346;48.766;8.674;2023-02-15T01:26:28;1.53;;;1.30;;
10596;SDS011;5346;48.766;8.674;2023-02-15T01:29:02;1.83;;;1.23;;
10596;SDS011;5346;48.766;8.674;2023-02-15T01:31:38;2.00;;;1.60;;
10596;SDS011;5346;48.766;8.674;2023-02-15T01:34:06;3.40;;;1.30;;
10596;SDS011;5346;48.766;8.674;2023-02-15T01:36:39;2.93;;;1.67;;
10596;SDS011;5346;48.766;8.674;2023-02-15T01:39:13;1.60;;;1.30;;
10596;SDS011;5346;48.766;8.674;2023-02-15T01:41:48;1.37;;;1.27;;
10596;SDS011;5346;48.766;8.674;2023-02-15T01:50:23;2.80;;;1.50;;
10596;SDS011;5346;48.766;8.674;2023-02-15T01:56:09;7.30;;;1.57;;
10596;SDS011;5346;48.766;8.674;2023-02-15T01:58:51;2.43;;;1.57;;
10596;SDS011;5346;48.766;8.674;2023-02-15T02:01:21;2.53;;;1.63;;
10596;SDS011;5346;48.766;8.674;2023-02-15T02:04:23;1.40;;;1.10;;
10596;SDS011;5346;48.766;8.674;2023-02-15T02:07:03;2.17;;;1.40;;
10596;SDS011;5346;48.766;8.674;2023-02-15T02:09:32;1.83;;;1.57;;
10596;SDS011;5346;48.766;8.674;2023-02-15T02:12:06;1.60;;;1.50;;
10596;SDS011;5346;48.766;8.674;2023-02-15T02:14:42;2.07;;;1.37;;
10596;SDS011;5346;48.766;8.674;2023-02-15T02:20:17;2.83;;;1.40;;
10596;SDS011;5346;48.766;8.674;2023-02-15T02:23:05;2.07;;;1.60;;
10596;SDS011;5346;48.766;8.674;2023-02-15T02:32:23;2.40;;;1.60;;
10596;SDS011;5346;48.766;8.674;2023-02-15T02:35:08;3.13;;;1.60;;
10596;SDS011;5346;48.766;8.674;2023-02-15T02:41:18;1.87;;;1.43;;
10596;SDS011;5346;48.766;8.674;2023-02-15T02:44:04;2.60;;;1.50;;
10596;SDS011;5346;48.766;8.674;2023-02-15T02:47:03;2.00;;;1.63;;
10596;SDS011;5346;48.766;8.674;2023-02-15T02:49:42;2.70;;;1.87;;
10596;SDS011;5346;48.766;8.674;2023-02-15T02:55:19;1.93;;;1.40;;
10596;SDS011;5346;48.766;8.674;2023-02-15T02:57:56;2.20;;;1.47;;
10596;SDS011;5346;48.766;8.674;2023-02-15T03:01:06;2.83;;;1.50;;
10596;SDS011;5346;48.766;8.674;2023-02-15T03:03:41;1.37;;;1.27;;
10596;SDS011;5346;48.766;8.674;2023-02-15T03:09:17;3.03;;;1.40;;
10596;SDS011;5346;48.766;8.674;2023-02-15T03:11:57;1.93;;;1.43;;
10596;SDS011;5346;48.766;8.674;2023-02-15T03:14:25;1.43;;;1.10;;
10596;SDS011;5346;48.766;8.674;2023-02-15T03:16:58;1.77;;;1.20;;
10596;SDS011;5346;48.766;8.674;2023-02-15T03:19:28;1.37;;;1.20;;
10596;SDS011;5346;48.766;8.674;2023-02-15T03:22:06;1.43;;;1.03;;
10596;SDS011;5346;48.766;8.674;2023-02-15T03:27:45;1.77;;;0.83;;
10596;SDS011;5346;48.766;8.674;2023-02-15T03:30:25;0.80;;;0.63;;
10596;SDS011;5346;48.766;8.674;2023-02-15T03:33:02;1.30;;;1.17;;
10596;SDS011;5346;48.766;8.674;2023-02-15T03:35:43;1.00;;;0.90;;
10596;SDS011;5346;48.766;8.674;2023-02-15T03:38:26;2.93;;;0.93;;
10596;SDS011;5346;48.766;8.674;2023-02-15T03:41:07;0.70;;;0.70;;
10596;SDS011;5346;48.766;8.674;2023-02-15T03:43:39;1.40;;;0.90;;
10596;SDS011;5346;48.766;8.674;2023-02-15T03:46:37;0.87;;;0.87;;
10596;SDS011;5346;48.766;8.674;2023-02-15T03:49:29;1.30;;;1.10;;
10596;SDS011;5346;48.766;8.674;2023-02-15T03:52:27;1.43;;;1.20;;
10596;SDS011;5346;48.766;8.674;2023-02-15T03:55:03;1.07;;;0.97;;
10596;SDS011;5346;48.766;8.674;2023-02-15T03:57:37;1.77;;;1.03;;
10596;SDS011;5346;48.766;8.674;2023-02-15T04:00:23;2.00;;;0.97;;
10596;SDS011;5346;48.766;8.674;2023-02-15T04:03:20;1.17;;;1.07;;
10596;SDS011;5346;48.766;8.674;2023-02-15T04:06:18;2.33;;;0.80;;
10596;SDS011;5346;48.766;8.674;2023-02-15T04:08:45;1.27;;;0.90;;
10596;SDS011;5346;48.766;8.674;2023-02-15T04:11:38;1.97;;;1.30;;
10596;SDS011;5346;48.766;8.674;2023-02-15T04:14:12;1.20;;;1.07;;
10596;SDS011;5346;48.766;8.674;2023-02-15T04:17:06;1.47;;;1.10;;
10596;SDS011;5346;48.766;8.674;2023-02-15T04:19:40;1.17;;;1.03;;
10596;SDS011;5346;48.766;8.674;2023-02-15T04:22:32;2.10;;;1.33;;
10596;SDS011;5346;48.766;8.674;2023-02-15T04:25:25;1.20;;;1.07;;
10596;SDS011;5346;48.766;8.674;2023-02-15T04:27:54;1.33;;;1.23;;
10596;SDS011;5346;48.766;8.674;2023-02-15T04:30:27;1.30;;;1.20;;
10596;SDS011;5346;48.766;8.674;2023-02-15T04:32:57;1.93;;;1.50;;
10596;SDS011;5346;48.766;8.674;2023-02-15T04:35:31;2.13;;;1.47;;
10596;SDS011;5346;48.766;8.674;2023-02-15T04:37:59;1.57;;;1.27;;
10596;SDS011;5346;48.766;8.674;2023-02-15T04:40:34;1.40;;;1.23;;
10596;SDS011;5346;48.766;8.674;2023-02-15T04:43:08;5.33;;;3.27;;
10596;SDS011;5346;48.766;8.674;2023-02-15T04:45:46;1.93;;;1.50;;
10596;SDS011;5346;48.766;8.674;2023-02-15T04:48:23;2.83;;;1.10;;
10596;SDS011;5346;48.766;8.674;2023-02-15T04:50:59;3.03;;;1.27;;
10596;SDS011;5346;48.766;8.674;2023-02-15T04:53:31;1.63;;;1.10;;
10596;SDS011;5346;48.766;8.674;2023-02-15T04:56:05;1.20;;;0.90;;
10596;SDS011;5346;48.766;8.674;2023-02-15T04:58:32;5.30;;;2.70;;
10596;SDS011;5346;48.766;8.674;2023-02-15T05:01:07;1.60;;;1.20;;
10596;SDS011;5346;48.766;8.674;2023-02-15T05:03:42;1.17;;;0.93;;
10596;SDS011;5346;48.766;8.674;2023-02-15T05:06:17;2.93;;;1.10;;
10596;SDS011;5346;48.766;8.674;2023-02-15T05:08:51;0.63;;;0.60;;
10596;SDS011;5346;48.766;8.674;2023-02-15T05:11:19;0.70;;;0.70;;
10596;SDS011;5346;48.766;8.674;2023-02-15T05:13:53;0.63;;;0.63;;
10596;SDS011;5346;48.766;8.674;2023-02-15T05:16:28;5.50;;;3.20;;
10596;SDS011;5346;48.766;8.674;2023-02-15T05:18:56;3.47;;;2.13;;
10596;SDS011;5346;48.766;8.674;2023-02-15T05:21:31;0.90;;;0.90;;
10596;SDS011;5346;48.766;8.674;2023-02-15T05:23:58;0.60;;;0.60;;
10596;SDS011;5346;48.766;8.674;2023-02-15T05:26:32;0.63;;;0.63;;
10596;SDS011;5346;48.766;8.674;2023-02-15T05:29:27;0.93;;;0.90;;
10596;SDS011;5346;48.766;8.674;2023-02-15T05:31:55;0.50;;;0.50;;
10596;SDS011;5346;48.766;8.674;2023-02-15T05:34:29;1.00;;;0.63;;
10596;SDS011;5346;48.766;8.674;2023-02-15T05:36:57;0.63;;;0.63;;
10596;SDS011;5346;48.766;8.674;2023-02-15T05:39:33;1.03;;;0.80;;
10596;SDS011;5346;48.766;8.674;2023-02-15T05:42:07;0.50;;;0.50;;
10596;SDS011;5346;48.766;8.674;2023-02-15T05:44:35;0.40;;;0.40;;
10596;SDS011;5346;48.766;8.674;2023-02-15T05:47:09;0.70;;;0.70;;
10596;SDS011;5346;48.766;8.674;2023-02-15T05:49:37;0.73;;;0.57;;
10596;SDS011;5346;48.766;8.674;2023-02-15T05:52:11;0.50;;;0.50;;
10596;SDS011;5346;48.766;8.674;2023-02-15T05:54:38;0.57;;;0.57;;
10596;SDS011;5346;48.766;8.674;2023-02-15T05:57:12;3.07;;;0.70;;
10596;SDS011;5346;48.766;8.674;2023-02-15T05:59:41;1.20;;;0.90;;
10596;SDS011;5346;48.766;8.674;2023-02-15T06:02:28;1.27;;;0.90;;
10596;SDS011;5346;48.766;8.674;2023-02-15T06:05:20;0.93;;;0.80;;
10596;SDS011;5346;48.766;8.674;2023-02-15T06:07:50;1.50;;;1.20;;
10596;SDS011;5346;48.766;8.674;2023-02-15T06:10:24;0.90;;;0.80;;
10596;SDS011;5346;48.766;8.674;2023-02-15T06:12:51;1.37;;;0.90;;
10596;SDS011;5346;48.766;8.674;2023-02-15T06:15:25;1.50;;;0.90;;
10596;SDS011;5346;48.766;8.674;2023-02-15T06:17:59;2.57;;;1.07;;
10596;SDS011;5346;48.766;8.674;2023-02-15T06:20:37;1.67;;;0.93;;
10596;SDS011;5346;48.766;8.674;2023-02-15T06:23:05;0.80;;;0.80;;
10596;SDS011;5346;48.766;8.674;2023-02-15T06:25:41;1.27;;;1.03;;
10596;SDS011;5346;48.766;8.674;2023-02-15T06:28:10;1.43;;;0.90;;
10596;SDS011;5346;48.766;8.674;2023-02-15T06:30:44;1.73;;;1.00;;
10596;SDS011;5346;48.766;8.674;2023-02-15T06:33:12;2.00;;;0.93;;
10596;SDS011;5346;48.766;8.674;2023-02-15T06:35:48;2.10;;;0.73;;
10596;SDS011;5346;48.766;8.674;2023-02-15T06:38:22;1.10;;;0.90;;
10596;SDS011;5346;48.766;8.674;2023-02-15T06:40:56;0.87;;;0.87;;
10596;SDS011;5346;48.766;8.674;2023-02-15T06:43:30;0.93;;;0.90;;
10596;SDS011;5346;48.766;8.674;2023-02-15T06:46:00;1.33;;;0.83;;
10596;SDS011;5346;48.766;8.674;2023-02-15T06:48:34;1.07;;;0.97;;
10596;SDS011;5346;48.766;8.674;2023-02-15T06:51:09;1.00;;;0.90;;
10596;SDS011;5346;48.766;8.674;2023-02-15T06:53:37;1.00;;;0.90;;
10596;SDS011;5346;48.766;8.674;2023-02-15T06:56:14;2.07;;;1.10;;
10596;SDS011;5346;48.766;8.674;2023-02-15T06:58:42;1.20;;;1.00;;
10596;SDS011;5346;48.766;8.674;2023-02-15T07:01:18;1.63;;;0.80;;
10596;SDS011;5346;48.766;8.674;2023-02-15T07:03:46;1.30;;;1.20;;
10596;SDS011;5346;48.766;8.674;2023-02-15T07:06:20;3.30;;;1.20;;
10596;SDS011;5346;48.766;8.674;2023-02-15T07:09:02;2.60;;;1.00;;
10596;SDS011;5346;48.766;8.674;2023-02-15T07:11:30;1.13;;;0.60;;
10596;SDS011;5346;48.766;8.674;2023-02-15T07:14:23;1.33;;;1.00;;
10596;SDS011;5346;48.766;8.674;2023-02-15T07:16:57;1.10;;;1.00;;
10596;SDS011;5346;48.766;8.674;2023-02-15T07:19:27;1.17;;;0.90;;
10596;SDS011;5346;48.766;8.674;2023-02-15T07:22:04;1.07;;;0.73;;
10596;SDS011;5346;48.766;8.674;2023-02-15T07:24:31;2.03;;;1.00;;
10596;SDS011;5346;48.766;8.674;2023-02-15T07:27:07;2.87;;;0.93;;
10596;SDS011;5346;48.766;8.674;2023-02-15T07:29:34;1.10;;;1.00;;
10596;SDS011;5346;48.766;8.674;2023-02-15T07:32:08;1.40;;;0.90;;
10596;SDS011;5346;48.766;8.674;2023-02-15T07:34:42;1.23;;;0.90;;
10596;SDS011;5346;48.766;8.674;2023-02-15T07:37:10;3.30;;;1.10;;
10596;SDS011;5346;48.766;8.674;2023-02-15T07:39:49;0.80;;;0.80;;
10596;SDS011;5346;48.766;8.674;2023-02-15T07:42:17;1.30;;;1.07;;
10596;SDS011;5346;48.766;8.674;2023-02-15T07:44:55;1.90;;;0.90;;
10596;SDS011;5346;48.766;8.674;2023-02-15T07:47:26;0.93;;;0.87;;
10596;SDS011;5346;48.766;8.674;2023-02-15T07:50:01;0.90;;;0.90;;
10596;SDS011;5346;48.766;8.674;2023-02-15T07:52:28;1.83;;;1.30;;
10596;SDS011;5346;48.766;8.674;2023-02-15T07:55:02;2.80;;;1.27;;
10596;SDS011;5346;48.766;8.674;2023-02-15T07:57:37;1.80;;;1.10;;
10596;SDS011;5346;48.766;8.674;2023-02-15T08:00:08;1.33;;;1.23;;
10596;SDS011;5346;48.766;8.674;2023-02-15T08:02:52;1.20;;;1.07;;
10596;SDS011;5346;48.766;8.674;2023-02-15T08:05:48;1.30;;;1.20;;
10596;SDS011;5346;48.766;8.674;2023-02-15T08:08:22;1.43;;;1.10;;
10596;SDS011;5346;48.766;8.674;2023-02-15T08:14:10;2.78;;;1.45;;
10596;SDS011;5346;48.766;8.674;2023-02-15T08:16:47;1.90;;;1.70;;
10596;SDS011;5346;48.766;8.674;2023-02-15T08:19:29;2.42;;;1.45;;
10596;SDS011;5346;48.766;8.674;2023-02-15T08:22:06;2.63;;;2.05;;
10596;SDS011;5346;48.766;8.674;2023-02-15T08:24:35;8.52;;;4.53;;
10596;SDS011;5346;48.766;8.674;2023-02-15T08:27:13;14.00;;;8.50;;
10596;SDS011;5346;48.766;8.674;2023-02-15T08:29:43;8.50;;;6.03;;
10596;SDS011;5346;48.766;8.674;2023-02-15T08:32:18;9.65;;;6.80;;
10596;SDS011;5346;48.766;8.674;2023-02-15T08:34:47;60.78;;;33.20;;
10596;SDS011;5346;48.766;8.674;2023-02-15T08:37:24;6.80;;;4.30;;
10596;SDS011;5346;48.766;8.674;2023-02-15T08:39:58;2.67;;;2.00;;
10596;SDS011;5346;48.766;8.674;2023-02-15T08:42:44;2.95;;;2.00;;
10596;SDS011;5346;48.766;8.674;2023-02-15T08:45:21;4.60;;;2.00;;
10596;SDS011;5346;48.766;8.674;2023-02-15T08:47:51;1.95;;;1.70;;
10596;SDS011;5346;48.766;8.674;2023-02-15T08:50:26;2.45;;;1.73;;
10596;SDS011;5346;48.766;8.674;2023-02-15T08:53:02;3.63;;;1.88;;
10596;SDS011;5346;48.766;8.674;2023-02-15T08:55:30;2.70;;;2.50;;
10596;SDS011;5346;48.766;8.674;2023-02-15T08:58:07;2.03;;;1.92;;
10596;SDS011;5346;48.766;8.674;2023-02-15T09:00:45;1.65;;;1.55;;
10596;SDS011;5346;48.766;8.674;2023-02-15T09:03:27;2.95;;;2.42;;
10596;SDS011;5346;48.766;8.674;2023-02-15T09:06:21;4.82;;;3.03;;
10596;SDS011;5346;48.766;8.674;2023-02-15T09:08:59;2.40;;;2.05;;
10596;SDS011;5346;48.766;8.674;2023-02-15T09:11:37;3.28;;;1.98;;
10596;SDS011;5346;48.766;8.674;2023-02-15T09:14:08;2.95;;;1.80;;
10596;SDS011;5346;48.766;8.674;2023-02-15T09:16:48;1.73;;;1.48;;
10596;SDS011;5346;48.766;8.674;2023-02-15T09:19:27;3.17;;;2.50;;
10596;SDS011;5346;48.766;8.674;2023-02-15T09:21:55;2.00;;;1.80;;
10596;SDS011;5346;48.766;8.674;2023-02-15T09:24:31;5.05;;;2.13;;
10596;SDS011;5346;48.766;8.674;2023-02-15T09:27:06;3.67;;;2.67;;
10596;SDS011;5346;48.766;8.674;2023-02-15T09:29:40;2.65;;;2.10;;
10596;SDS011;5346;48.766;8.674;2023-02-15T09:32:14;2.25;;;2.00;;
10596;SDS011;5346;48.766;8.674;2023-02-15T09:34:45;2.92;;;1.95;;
10596;SDS011;5346;48.766;8.674;2023-02-15T09:37:21;2.20;;;1.80;;
10596;SDS011;5346;48.766;8.674;2023-02-15T09:39:54;1.90;;;1.58;;
10596;SDS011;5346;48.766;8.674;2023-02-15T09:42:26;2.22;;;1.90;;
10596;SDS011;5346;48.766;8.674;2023-02-15T09:51:38;2.20;;;2.00;;
10596;SDS011;5346;48.766;8.674;2023-02-15T09:57:08;2.20;;;1.98;;
10596;SDS011;5346;48.766;8.674;2023-02-15T10:00:05;2.83;;;2.17;;
10596;SDS011;5346;48.766;8.674;2023-02-15T10:03:32;3.25;;;2.10;;
10596;SDS011;5346;48.766;8.674;2023-02-15T10:06:44;2.88;;;2.10;;
10596;SDS011;5346;48.766;8.674;2023-02-15T10:18:30;2.60;;;1.80;;
10596;SDS011;5346;48.766;8.674;2023-02-15T10:24:48;2.70;;;2.15;;
10596;SDS011;5346;48.766;8.674;2023-02-15T10:27:30;3.10;;;2.40;;
10596;SDS011;5346;48.766;8.674;2023-02-15T10:30:11;2.72;;;2.03;;
10596;SDS011;5346;48.766;8.674;2023-02-15T10:33:04;4.07;;;2.53;;
10596;SDS011;5346;48.766;8.674;2023-02-15T10:41:36;3.15;;;2.35;;
10596;SDS011;5346;48.766;8.674;2023-02-15T10:47:25;2.60;;;2.30;;
10596;SDS011;5346;48.766;8.674;2023-02-15T10:53:36;2.88;;;2.40;;
10596;SDS011;5346;48.766;8.674;2023-02-15T11:08:12;2.83;;;2.20;;
10596;SDS011;5346;48.766;8.674;2023-02-15T11:13:27;3.05;;;2.05;;
10596;SDS011;5346;48.766;8.674;2023-02-15T11:16:04;3.10;;;2.30;;
10596;SDS011;5346;48.766;8.674;2023-02-15T11:18:50;2.78;;;2.15;;
10596;SDS011;5346;48.766;8.674;2023-02-15T11:21:39;3.72;;;2.28;;
10596;SDS011;5346;48.766;8.674;2023-02-15T11:24:14;2.80;;;2.30;;
10596;SDS011;5346;48.766;8.674;2023-02-15T11:29:39;2.75;;;2.13;;
10596;SDS011;5346;48.766;8.674;2023-02-15T11:32:30;2.30;;;2.10;;
10596;SDS011;5346;48.766;8.674;2023-02-15T11:35:37;3.78;;;2.58;;
10596;SDS011;5346;48.766;8.674;2023-02-15T11:38:22;2.40;;;2.15;;
10596;SDS011;5346;48.766;8.674;2023-02-15T11:41:03;2.47;;;2.03;;
10596;SDS011;5346;48.766;8.674;2023-02-15T11:46:44;4.63;;;2.55;;
10596;SDS011;5346;48.766;8.674;2023-02-15T11:49:26;3.20;;;2.45;;
10596;SDS011;5346;48.766;8.674;2023-02-15T11:52:06;4.25;;;2.80;;
10596;SDS011;5346;48.766;8.674;2023-02-15T11:54:47;3.10;;;2.72;;
10596;SDS011;5346;48.766;8.674;2023-02-15T11:57:28;4.35;;;2.90;;
10596;SDS011;5346;48.766;8.674;2023-02-15T12:00:15;3.53;;;2.70;;
10596;SDS011;5346;48.766;8.674;2023-02-15T12:03:22;3.17;;;2.63;;
10596;SDS011;5346;48.766;8.674;2023-02-15T12:06:29;3.65;;;2.35;;
10596;SDS011;5346;48.766;8.674;2023-02-15T12:09:18;4.05;;;2.53;;
10596;SDS011;5346;48.766;8.674;2023-02-15T12:12:20;3.13;;;2.60;;
10596;SDS011;5346;48.766;8.674;2023-02-15T12:14:50;2.80;;;2.40;;
10596;SDS011;5346;48.766;8.674;2023-02-15T12:17:38;3.72;;;2.70;;
10596;SDS011;5346;48.766;8.674;2023-02-15T12:20:28;3.28;;;2.88;;
10596;SDS011;5346;48.766;8.674;2023-02-15T12:23:03;3.67;;;2.70;;
10596;SDS011;5346;48.766;8.674;2023-02-15T12:25:53;4.28;;;3.15;;
10596;SDS011;5346;48.766;8.674;2023-02-15T12:28:33;4.28;;;2.58;;
10596;SDS011;5346;48.766;8.674;2023-02-15T12:31:31;3.53;;;3.00;;
10596;SDS011;5346;48.766;8.674;2023-02-15T12:33:59;3.08;;;2.75;;
10596;SDS011;5346;48.766;8.674;2023-02-15T12:36:43;3.13;;;2.83;;
10596;SDS011;5346;48.766;8.674;2023-02-15T12:39:27;5.47;;;3.20;;
10596;SDS011;5346;48.766;8.674;2023-02-15T12:42:08;3.67;;;2.70;;
10596;SDS011;5346;48.766;8.674;2023-02-15T12:44:53;3.20;;;2.90;;
10596;SDS011;5346;48.766;8.674;2023-02-15T12:47:30;5.18;;;2.92;;
10596;SDS011;5346;48.766;8.674;2023-02-15T12:50:12;4.43;;;3.28;;
10596;SDS011;5346;48.766;8.674;2023-02-15T12:53:12;4.43;;;3.40;;
10596;SDS011;5346;48.766;8.674;2023-02-15T12:56:00;5.22;;;3.28;;
10596;SDS011;5346;48.766;8.674;2023-02-15T12:58:40;4.85;;;3.67;;
10596;SDS011;5346;48.766;8.674;2023-02-15T13:04:01;4.78;;;3.65;;
10596;SDS011;5346;48.766;8.674;2023-02-15T13:06:48;5.00;;;4.00;;
10596;SDS011;5346;48.766;8.674;2023-02-15T13:14:56;6.07;;;4.25;;
10596;SDS011;5346;48.766;8.674;2023-02-15T13:17:29;4.20;;;3.80;;
10596;SDS011;5346;48.766;8.674;2023-02-15T13:20:18;5.00;;;3.60;;
10596;SDS011;5346;48.766;8.674;2023-02-15T13:23:00;4.40;;;3.75;;
10596;SDS011;5346;48.766;8.674;2023-02-15T13:25:32;4.53;;;3.55;;
10596;SDS011;5346;48.766;8.674;2023-02-15T13:28:23;4.82;;;3.40;;
10596;SDS011;5346;48.766;8.674;2023-02-15T13:34:10;5.45;;;3.80;;
10596;SDS011;5346;48.766;8.674;2023-02-15T13:37:01;4.25;;;3.85;;
10596;SDS011;5346;48.766;8.674;2023-02-15T13:40:02;4.82;;;4.32;;
10596;SDS011;5346;48.766;8.674;2023-02-15T13:42:41;4.00;;;3.60;;
10596;SDS011;5346;48.766;8.674;2023-02-15T13:48:23;4.80;;;3.50;;
10596;SDS011;5346;48.766;8.674;2023-02-15T13:51:21;3.45;;;3.08;;
10596;SDS011;5346;48.766;8.674;2023-02-15T14:09:14;4.50;;;3.47;;
10596;SDS011;5346;48.766;8.674;2023-02-15T14:18:07;6.10;;;3.90;;
10596;SDS011;5346;48.766;8.674;2023-02-15T14:20:47;4.70;;;3.50;;
10596;SDS011;5346;48.766;8.674;2023-02-15T14:23:57;4.20;;;3.80;;
10596;SDS011;5346;48.766;8.674;2023-02-15T14:32:33;4.68;;;3.40;;
10596;SDS011;5346;48.766;8.674;2023-02-15T14:37:52;5.45;;;3.50;;
10596;SDS011;5346;48.766;8.674;2023-02-15T14:49:53;4.28;;;3.60;;
10596;SDS011;5346;48.766;8.674;2023-02-15T14:52:21;5.68;;;3.90;;
10596;SDS011;5346;48.766;8.674;2023-02-15T14:54:55;4.40;;;3.78;;
10596;SDS011;5346;48.766;8.674;2023-02-15T14:57:26;8.10;;;4.15;;
10596;SDS011;5346;48.766;8.674;2023-02-15T15:00:19;6.47;;;4.55;;
10596;SDS011;5346;48.766;8.674;2023-02-15T15:03:02;8.00;;;5.18;;
10596;SDS011;5346;48.766;8.674;2023-02-15T15:05:51;6.07;;;5.20;;
10596;SDS011;5346;48.766;8.674;2023-02-15T15:08:39;6.95;;;5.00;;
10596;SDS011;5346;48.766;8.674;2023-02-15T15:17:08;6.50;;;5.75;;
10596;SDS011;5346;48.766;8.674;2023-02-15T15:20:14;9.57;;;6.50;;
10596;SDS011;5346;48.766;8.674;2023-02-15T15:26:22;8.88;;;6.82;;
10596;SDS011;5346;48.766;8.674;2023-02-15T15:29:00;10.43;;;7.18;;
10596;SDS011;5346;48.766;8.674;2023-02-15T15:46:06;10.57;;;7.70;;
10596;SDS011;5346;48.766;8.674;2023-02-15T15:48:39;9.80;;;7.47;;
10596;SDS011;5346;48.766;8.674;2023-02-15T15:51:17;17.00;;;8.10;;
10596;SDS011;5346;48.766;8.674;2023-02-15T15:54:18;10.32;;;8.13;;
10596;SDS011;5346;48.766;8.674;2023-02-15T15:57:00;12.45;;;7.78;;
10596;SDS011;5346;48.766;8.674;2023-02-15T15:59:35;11.82;;;7.47;;
10596;SDS011;5346;48.766;8.674;2023-02-15T16:02:16;11.40;;;7.53;;
10596;SDS011;5346;48.766;8.674;2023-02-15T16:05:07;11.35;;;7.80;;
10596;SDS011;5346;48.766;8.674;2023-02-15T16:07:41;11.35;;;7.53;;
10596;SDS011;5346;48.766;8.674;2023-02-15T16:10:24;13.45;;;7.45;;
10596;SDS011;5346;48.766;8.674;2023-02-15T16:13:00;13.27;;;8.48;;
10596;SDS011;5346;48.766;8.674;2023-02-15T16:15:36;9.73;;;6.07;;
10596;SDS011;5346;48.766;8.674;2023-02-15T16:18:18;7.07;;;5.32;;
10596;SDS011;5346;48.766;8.674;2023-02-15T16:21:01;9.48;;;5.60;;
10596;SDS011;5346;48.766;8.674;2023-02-15T16:29:33;9.97;;;4.77;;
10596;SDS011;5346;48.766;8.674;2023-02-15T16:32:18;9.03;;;4.70;;
10596;SDS011;5346;48.766;8.674;2023-02-15T16:34:57;7.93;;;4.97;;
10596;SDS011;5346;48.766;8.674;2023-02-15T16:37:34;9.47;;;5.37;;
10596;SDS011;5346;48.766;8.674;2023-02-15T16:43:06;9.03;;;5.70;;
10596;SDS011;5346;48.766;8.674;2023-02-15T16:45:42;8.70;;;5.30;;
10596;SDS011;5346;48.766;8.674;2023-02-15T16:48:21;9.30;;;5.90;;
10596;SDS011;5346;48.766;8.674;2023-02-15T16:50:53;7.80;;;5.40;;
10596;SDS011;5346;48.766;8.674;2023-02-15T16:53:30;9.63;;;5.80;;
10596;SDS011;5346;48.766;8.674;2023-02-15T16:56:01;10.07;;;5.60;;
10596;SDS011;5346;48.766;8.674;2023-02-15T16:58:38;9.80;;;5.97;;
10596;SDS011;5346;48.766;8.674;2023-02-15T17:01:10;11.67;;;5.00;;
10596;SDS011;5346;48.766;8.674;2023-02-15T17:03:51;7.90;;;4.10;;
10596;SDS011;5346;48.766;8.674;2023-02-15T17:07:06;8.80;;;4.60;;
10596;SDS011;5346;48.766;8.674;2023-02-15T17:09:59;6.50;;;4.37;;
10596;SDS011;5346;48.766;8.674;2023-02-15T17:12:46;11.13;;;4.90;;
10596;SDS011;5346;48.766;8.674;2023-02-15T17:20:48;8.67;;;4.90;;
10596;SDS011;5346;48.766;8.674;2023-02-15T17:23:26;7.83;;;4.33;;
10596;SDS011;5346;48.766;8.674;2023-02-15T17:26:10;6.17;;;3.83;;
10596;SDS011;5346;48.766;8.674;2023-02-15T17:28:45;4.77;;;3.37;;
10596;SDS011;5346;48.766;8.674;2023-02-15T17:31:45;4.67;;;3.53;;
10596;SDS011;5346;48.766;8.674;2023-02-15T17:37:25;5.70;;;3.23;;
10596;SDS011;5346;48.766;8.674;2023-02-15T17:39:59;6.10;;;3.00;;
10596;SDS011;5346;48.766;8.674;2023-02-15T17:42:38;4.53;;;2.70;;
10596;SDS011;5346;48.766;8.674;2023-02-15T17:45:06;4.43;;;2.87;;
10596;SDS011;5346;48.766;8.674;2023-02-15T17:47:40;4.63;;;2.60;;
10596;SDS011;5346;48.766;8.674;2023-02-15T17:50:15;6.33;;;3.17;;
10596;SDS011;5346;48.766;8.674;2023-02-15T17:52:55;3.83;;;2.63;;
10596;SDS011;5346;48.766;8.674;2023-02-15T17:55:23;4.30;;;2.87;;
10596;SDS011;5346;48.766;8.674;2023-02-15T17:58:08;4.20;;;2.87;;
10596;SDS011;5346;48.766;8.674;2023-02-15T18:00:45;5.63;;;3.83;;
10596;SDS011;5346;48.766;8.674;2023-02-15T18:06:34;8.17;;;4.07;;
10596;SDS011;5346;48.766;8.674;2023-02-15T18:09:30;6.03;;;4.00;;
10596;SDS011;5346;48.766;8.674;2023-02-15T18:12:33;6.33;;;3.90;;
10596;SDS011;5346;48.766;8.674;2023-02-15T18:15:06;6.37;;;4.17;;
10596;SDS011;5346;48.766;8.674;2023-02-15T18:17:41;6.83;;;4.43;;
10596;SDS011;5346;48.766;8.674;2023-02-15T18:20:17;7.60;;;4.30;;
10596;SDS011;5346;48.766;8.674;2023-02-15T18:22:56;6.57;;;4.43;;
10596;SDS011;5346;48.766;8.674;2023-02-15T18:25:31;6.37;;;3.80;;
10596;SDS011;5346;48.766;8.674;2023-02-15T18:28:05;9.10;;;4.20;;
10596;SDS011;5346;48.766;8.674;2023-02-15T18:30:32;10.37;;;3.80;;
10596;SDS011;5346;48.766;8.674;2023-02-15T18:33:41;4.53;;;3.30;;
10596;SDS011;5346;48.766;8.674;2023-02-15T18:36:12;5.50;;;3.67;;
10596;SDS011;5346;48.766;8.674;2023-02-15T18:38:55;5.47;;;3.60;;
10596;SDS011;5346;48.766;8.674;2023-02-15T18:41:34;6.47;;;3.57;;
10596;SDS011;5346;48.766;8.674;2023-02-15T18:44:01;7.13;;;4.10;;
10596;SDS011;5346;48.766;8.674;2023-02-15T18:46:35;5.60;;;4.23;;
10596;SDS011;5346;48.766;8.674;2023-02-15T18:49:03;6.30;;;4.07;;
10596;SDS011;5346;48.766;8.674;2023-02-15T18:51:37;10.37;;;6.13;;
10596;SDS011;5346;48.766;8.674;2023-02-15T18:54:16;10.60;;;6.63;;
10596;SDS011;5346;48.766;8.674;2023-02-15T18:56:55;10.23;;;7.10;;
10596;SDS011;5346;48.766;8.674;2023-02-15T18:59:32;10.70;;;7.13;;
10596;SDS011;5346;48.766;8.674;2023-02-15T19:02:13;13.53;;;8.03;;
10596;SDS011;5346;48.766;8.674;2023-02-15T19:04:48;15.53;;;8.87;;
10596;SDS011;5346;48.766;8.674;2023-02-15T19:07:25;12.60;;;8.10;;
10596;SDS011;5346;48.766;8.674;2023-02-15T19:09:57;19.87;;;8.87;;
10596;SDS011;5346;48.766;8.674;2023-02-15T19:12:39;10.30;;;6.37;;
10596;SDS011;5346;48.766;8.674;2023-02-15T19:15:14;15.47;;;8.60;;
10596;SDS011;5346;48.766;8.674;2023-02-15T19:17:55;11.53;;;6.40;;